M I D A S
Marine Information and Data Acquisition System
Tripno 1622 of the Zeeleeuw from 2008-12-18 08:26:27 to 2008-12-18 15:57:38
Back to CruiseResearch ActivitiesStationsMapUnderway DataData graphs

EquipmentUnitsComment
TimeDGPSUTC
LatitudeDGPSDM.mWGS84
LongitudeDGPSDM.mWGS84
HeadingGyrodeg 
SOGDGPSknotsSpeed over ground
COGDGPSdegCourse over ground
DepthEcho soundermeters200 kHz
Missing or incorrect values are displayed as -999
Navigation data collected by the RV Zeeleeuw from 2008-12-18 08:28:12 to 2008-12-18 16:00:09
                                                                                    Next 1000 lines
Time Latitude Longitude Heading SOG COG Depth
2008-12-18 08:28:22 51°13.661 2°55.954 107.4 1.1 292 5.9
2008-12-18 08:28:27 51°13.662 2°55.951 107.1 1.5 289 6.1
2008-12-18 08:28:32 51°13.663 2°55.947 106.9 1.9 292 6.3
2008-12-18 08:28:37 51°13.664 2°55.943 106.5 2.2 289 6.6
2008-12-18 08:28:42 51°13.665 2°55.938 106.3 2.4 290 -999
2008-12-18 08:28:47 51°13.667 2°55.932 106.6 2.7 290 -999
2008-12-18 08:28:52 51°13.668 2°55.926 107 2.9 291 -999
2008-12-18 08:28:57 51°13.669 2°55.919 107.3 3.2 290 -999
2008-12-18 08:29:02 51°13.671 2°55.912 107.5 3.4 291 -999
2008-12-18 08:29:07 51°13.672 2°55.905 107.7 3.6 289 -999
2008-12-18 08:29:12 51°13.674 2°55.897 107.7 3.7 290 -999
2008-12-18 08:29:17 51°13.676 2°55.889 107.7 3.8 289 -999
2008-12-18 08:29:22 51°13.678 2°55.881 107.4 4 289 -999
2008-12-18 08:29:27 51°13.68 2°55.873 107.3 4.1 288 -999
2008-12-18 08:29:32 51°13.682 2°55.864 107 4.2 289 -999
2008-12-18 08:29:37 51°13.684 2°55.855 106.7 4.2 289 -999
2008-12-18 08:29:42 51°13.686 2°55.846 105.9 4.3 289 -999
2008-12-18 08:29:47 51°13.688 2°55.837 104.8 4.4 288 -999
2008-12-18 08:29:52 51°13.69 2°55.828 102.9 4.4 286 -999
2008-12-18 08:29:57 51°13.691 2°55.818 101 4.4 285 -999
2008-12-18 08:30:02 51°13.692 2°55.809 99.3 4.3 283 -999
2008-12-18 08:30:07 51°13.694 2°55.8 97.3 4.1 282 -999
2008-12-18 08:30:12 51°13.695 2°55.792 95.4 4 279 -999
2008-12-18 08:30:17 51°13.695 2°55.783 93.7 3.9 278 -999
2008-12-18 08:30:22 51°13.696 2°55.775 91.9 3.7 277 -999
2008-12-18 08:30:27 51°13.696 2°55.767 90.3 3.5 276 -999
2008-12-18 08:30:32 51°13.697 2°55.76 88.1 3.3 274 -999
2008-12-18 08:30:37 51°13.697 2°55.753 86.7 3.2 274 -999
2008-12-18 08:30:42 51°13.698 2°55.746 85.9 2.9 273 -999
2008-12-18 08:30:47 51°13.698 2°55.741 84.8 2.5 273 12.6
2008-12-18 08:30:52 51°13.698 2°55.737 83.4 1.9 273 12.1
2008-12-18 08:30:57 51°13.698 2°55.734 81.1 1.2 282 11.9
2008-12-18 08:31:02 51°13.699 2°55.733 77.9 0.7 294 12
2008-12-18 08:31:07 51°13.699 2°55.733 74 0.5 352 12
2008-12-18 08:31:12 51°13.7 2°55.734 68.5 0.7 32 12
2008-12-18 08:31:17 51°13.701 2°55.734 61.9 0.8 14 11.9
2008-12-18 08:31:21 51°13.701 2°55.734 55.3 0.5 16 11.9
2008-12-18 08:31:26 51°13.702 2°55.734 50.5 0.4 336 12
2008-12-18 08:31:32 51°13.702 2°55.733 46.5 0.4 266 12.1
2008-12-18 08:31:37 51°13.701 2°55.732 42.8 0.8 242 12
2008-12-18 08:31:41 51°13.701 2°55.73 39.4 1.1 232 12.1
2008-12-18 08:31:46 51°13.7 2°55.728 35.8 1.2 229 12.6
2008-12-18 08:31:52 51°13.698 2°55.726 33.2 1.1 228 12.9
2008-12-18 08:31:57 51°13.698 2°55.724 30.4 0.9 231 13.5
2008-12-18 08:32:01 51°13.697 2°55.723 27.7 0.6 250 14
2008-12-18 08:32:06 51°13.698 2°55.722 23.9 0.5 312 14.3
2008-12-18 08:32:12 51°13.7 2°55.721 20.3 1.1 343 14.6
2008-12-18 08:32:17 51°13.702 2°55.721 14 1.8 350 15.1
2008-12-18 08:32:21 51°13.705 2°55.72 5.9 2.6 345 14.3
2008-12-18 08:32:26 51°13.709 2°55.718 356.4 3.4 342 12.8
2008-12-18 08:32:32 51°13.716 2°55.714 348.1 4.1 338 11.6
2008-12-18 08:32:37 51°13.722 2°55.709 342.6 4.9 335 11
2008-12-18 08:32:41 51°13.727 2°55.705 339.7 5.6 336 11.3
2008-12-18 08:32:46 51°13.734 2°55.699 338.7 6.2 334 11.3
2008-12-18 08:32:52 51°13.744 2°55.692 337.8 6.7 337 11.3
2008-12-18 08:32:57 51°13.753 2°55.686 338.3 7 335 11.3
2008-12-18 08:33:01 51°13.761 2°55.681 338.6 6.9 336 10.6
2008-12-18 08:33:06 51°13.769 2°55.675 338.2 6.7 337 10.5
2008-12-18 08:33:11 51°13.778 2°55.67 338.5 6.6 337 10.5
2008-12-18 08:33:17 51°13.788 2°55.663 339.2 6.6 338 10.5
2008-12-18 08:33:21 51°13.795 2°55.659 339.3 6.7 338 10.4
2008-12-18 08:33:26 51°13.804 2°55.653 339.2 6.9 337 10.4
2008-12-18 08:33:31 51°13.813 2°55.647 338.5 7.2 337 10.4
2008-12-18 08:33:37 51°13.824 2°55.639 337.9 7.4 337 10.4
2008-12-18 08:33:41 51°13.832 2°55.634 338 7.6 338 10.4
2008-12-18 08:33:46 51°13.842 2°55.627 338.3 7.9 336 10.2
2008-12-18 08:33:51 51°13.852 2°55.62 337.6 8 337 10.2
2008-12-18 08:33:57 51°13.864 2°55.611 337.4 8.2 336 10.2
2008-12-18 08:34:02 51°13.875 2°55.604 337.4 8.4 336 10.2
2008-12-18 08:34:06 51°13.884 2°55.598 337.4 8.5 336 10.1
2008-12-18 08:34:12 51°13.897 2°55.589 337.5 8.7 336 10.2
2008-12-18 08:34:17 51°13.908 2°55.581 337.6 8.8 336 10.3
2008-12-18 08:34:21 51°13.917 2°55.574 337.5 8.8 337 10.3
2008-12-18 08:34:26 51°13.928 2°55.566 337.7 8.9 336 10.3
2008-12-18 08:34:32 51°13.942 2°55.557 337.9 8.9 337 10.3
2008-12-18 08:34:37 51°13.953 2°55.549 337.9 9 337 10.3
2008-12-18 08:34:41 51°13.963 2°55.543 337.9 9 337 10.3
2008-12-18 08:34:46 51°13.974 2°55.535 337.9 9 336 10.3
2008-12-18 08:34:52 51°13.988 2°55.526 337.8 9 336 10.3
2008-12-18 08:34:57 51°13.999 2°55.518 337.6 9 336 10.3
2008-12-18 08:35:01 51°14.008 2°55.511 337.4 9 336 10.3
2008-12-18 08:35:06 51°14.019 2°55.503 337.1 9 336 10.2
2008-12-18 08:35:12 51°14.033 2°55.493 337 9 335 10.3
2008-12-18 08:35:17 51°14.044 2°55.485 336.6 9 335 10.2
2008-12-18 08:35:21 51°14.054 2°55.478 336.2 9 335 10.2
2008-12-18 08:35:26 51°14.065 2°55.47 336.3 9 335 10.2
2008-12-18 08:35:31 51°14.076 2°55.461 336.4 9 334 10.3
2008-12-18 08:35:37 51°14.09 2°55.451 335.8 9 334 10.3
2008-12-18 08:35:41 51°14.098 2°55.444 335.6 9 334 10.3
2008-12-18 08:35:46 51°14.11 2°55.435 335.6 9 333 10.3
2008-12-18 08:35:51 51°14.121 2°55.425 334.9 9 332 10.3
2008-12-18 08:35:57 51°14.134 2°55.414 334.1 9 331 10.3
2008-12-18 08:36:01 51°14.142 2°55.406 333.4 9 330 10.3
2008-12-18 08:36:06 51°14.153 2°55.396 332.7 9 329 10.3
2008-12-18 08:36:11 51°14.164 2°55.385 331.1 9.1 327 10.3
2008-12-18 08:36:17 51°14.176 2°55.372 329.3 9.1 326 10.3
2008-12-18 08:36:22 51°14.187 2°55.36 327.7 9.1 325 10.4
2008-12-18 08:36:26 51°14.195 2°55.351 326.7 9.2 324 10.4
2008-12-18 08:36:32 51°14.207 2°55.335 325.7 9.2 321 10.4
2008-12-18 08:36:37 51°14.217 2°55.322 323.3 9.2 319 10.9
2008-12-18 08:36:41 51°14.224 2°55.311 320.8 9.3 318 10.5
2008-12-18 08:36:46 51°14.234 2°55.297 319.3 9.4 318 10.4
2008-12-18 08:36:52 51°14.245 2°55.28 318.7 9.4 316 10.4
2008-12-18 08:36:57 51°14.255 2°55.265 317.4 9.5 314 10.3
2008-12-18 08:37:01 51°14.262 2°55.253 315.7 9.6 315 10.5
2008-12-18 08:37:06 51°14.271 2°55.238 315 9.6 314 10.4
2008-12-18 08:37:12 51°14.282 2°55.22 314.8 9.7 315 10.4
2008-12-18 08:37:17 51°14.292 2°55.204 314.9 9.7 314 10.4
2008-12-18 08:37:21 51°14.3 2°55.192 314.9 9.7 315 10.2
2008-12-18 08:37:26 51°14.309 2°55.177 315.1 9.8 315 10.2
2008-12-18 08:37:31 51°14.319 2°55.161 315.3 9.8 315 10.4
2008-12-18 08:37:37 51°14.33 2°55.143 315.4 9.8 315 10.5
2008-12-18 08:37:41 51°14.338 2°55.131 315.5 9.8 314 10.7
2008-12-18 08:37:46 51°14.347 2°55.115 315.6 9.8 315 10.8
2008-12-18 08:37:51 51°14.357 2°55.1 315.3 9.8 313 10.5
2008-12-18 08:37:57 51°14.367 2°55.08 313.3 9.8 311 10.3
2008-12-18 08:38:01 51°14.374 2°55.067 311.5 9.8 311 10.7
2008-12-18 08:38:06 51°14.383 2°55.05 310.6 9.8 310 10.6
2008-12-18 08:38:11 51°14.391 2°55.034 309.7 9.9 308 10.7
2008-12-18 08:38:17 51°14.401 2°55.013 309.1 9.9 307 10.7
2008-12-18 08:38:21 51°14.408 2°54.998 308.6 10.1 306 10.6
2008-12-18 08:38:26 51°14.416 2°54.979 307.6 10.3 304 10.6
2008-12-18 08:38:31 51°14.424 2°54.96 306.7 10.6 305 10.4
2008-12-18 08:38:37 51°14.435 2°54.936 307.1 10.9 305 10.3
2008-12-18 08:38:41 51°14.442 2°54.92 308.3 11.1 304 10.5
2008-12-18 08:38:46 51°14.45 2°54.9 308.4 11.3 304 10.5
2008-12-18 08:38:52 51°14.461 2°54.874 307.6 11.5 303 10.5
2008-12-18 08:38:57 51°14.469 2°54.852 306.7 11.6 303 10.3
2008-12-18 08:39:01 51°14.476 2°54.835 306.5 11.8 302 10.3
2008-12-18 08:39:07 51°14.487 2°54.808 305.9 11.9 301 10.5
2008-12-18 08:39:12 51°14.495 2°54.786 305.5 11.9 302 10.4
2008-12-18 08:39:17 51°14.502 2°54.762 305.4 11.9 296 10.3
2008-12-18 08:39:21 51°14.507 2°54.743 301.7 11.8 292 10.5
2008-12-18 08:39:26 51°14.512 2°54.718 296.5 11.7 286 10.5
2008-12-18 08:39:31 51°14.515 2°54.693 290.6 11.7 281 10.4
2008-12-18 08:39:37 51°14.517 2°54.662 284.8 11.6 275 10.6
2008-12-18 08:39:41 51°14.517 2°54.641 278.9 11.6 270 10.5
2008-12-18 08:39:46 51°14.516 2°54.616 273 11.5 264 10.7
2008-12-18 08:39:51 51°14.513 2°54.591 266.9 11.5 259 10.7
2008-12-18 08:39:57 51°14.508 2°54.561 260.8 11.6 254 10.6
2008-12-18 08:40:01 51°14.504 2°54.542 255.1 11.8 253 10.6
2008-12-18 08:40:06 51°14.499 2°54.516 253 11.9 254 10.6
2008-12-18 08:40:11 51°14.494 2°54.491 253.2 12 253 10.6
2008-12-18 08:40:17 51°14.489 2°54.46 254 12.1 253 10.6
2008-12-18 08:40:21 51°14.484 2°54.44 253.3 12.2 250 10.7
2008-12-18 08:40:26 51°14.478 2°54.414 251.5 12.2 251 10.7
2008-12-18 08:40:32 51°14.471 2°54.384 250.7 12.2 247 10.6
2008-12-18 08:40:37 51°14.464 2°54.36 248.4 12.2 246 10.6
2008-12-18 08:40:41 51°14.458 2°54.34 246.3 12.2 244 10.7
2008-12-18 08:40:46 51°14.45 2°54.316 244.3 12.3 244 10.5
2008-12-18 08:40:52 51°14.44 2°54.287 243.1 12.3 241 10
2008-12-18 08:40:57 51°14.433 2°54.263 241.6 12.2 242 9.3
2008-12-18 08:41:02 51°14.424 2°54.241 241.2 12.2 239 9.3
2008-12-18 08:41:06 51°14.417 2°54.222 239.9 12.2 240 9.2
2008-12-18 08:41:12 51°14.407 2°54.194 239.4 12.2 239 9.1
2008-12-18 08:41:17 51°14.398 2°54.171 239.3 12.2 240 9
2008-12-18 08:41:21 51°14.391 2°54.153 239.1 12.2 239 9.1
2008-12-18 08:41:27 51°14.381 2°54.125 238.9 12.3 239 9.1
2008-12-18 08:41:32 51°14.372 2°54.102 238.9 12.3 239 9
2008-12-18 08:41:37 51°14.363 2°54.078 238.6 12.3 239 9
2008-12-18 08:41:41 51°14.356 2°54.06 238.5 12.3 239 9
2008-12-18 08:41:46 51°14.347 2°54.036 238.5 12.4 239 9
2008-12-18 08:41:52 51°14.337 2°54.008 238.3 12.3 240 8.9
2008-12-18 08:41:57 51°14.329 2°53.984 239.5 12.3 241 9
2008-12-18 08:42:01 51°14.322 2°53.965 240.3 12.3 242 8.9
2008-12-18 08:42:06 51°14.314 2°53.942 241.2 12.3 242 9
2008-12-18 08:42:11 51°14.306 2°53.918 241.7 12.3 242 9
2008-12-18 08:42:17 51°14.296 2°53.889 241.8 12.3 242 8.9
2008-12-18 08:42:21 51°14.29 2°53.869 242 12.3 243 9
2008-12-18 08:42:26 51°14.282 2°53.845 242.2 12.3 243 9
2008-12-18 08:42:31 51°14.274 2°53.821 242.2 12.3 243 9.1
2008-12-18 08:42:37 51°14.265 2°53.792 242.4 12.3 242 9
2008-12-18 08:42:42 51°14.257 2°53.768 242.4 12.3 242 9.1
2008-12-18 08:42:46 51°14.25 2°53.749 241.6 12.3 242 9.1
2008-12-18 08:42:52 51°14.241 2°53.72 242 12.3 242 9
2008-12-18 08:42:57 51°14.233 2°53.696 242.1 12.3 242 9.1
2008-12-18 08:43:02 51°14.225 2°53.672 242 12.3 242 9.1
2008-12-18 08:43:06 51°14.219 2°53.652 242 12.3 243 9.1
2008-12-18 08:43:12 51°14.21 2°53.624 242 12.3 243 9
2008-12-18 08:43:17 51°14.202 2°53.6 242.3 12.3 243 9.2
2008-12-18 08:43:21 51°14.195 2°53.58 242.2 12.3 242 9.1
2008-12-18 08:43:26 51°14.187 2°53.556 242 12.3 243 9.2
2008-12-18 08:43:32 51°14.178 2°53.527 242.1 12.3 242 9.2
2008-12-18 08:43:37 51°14.17 2°53.503 242.3 12.3 242 9.3
2008-12-18 08:43:41 51°14.164 2°53.484 241.9 12.3 242 9.2
2008-12-18 08:43:47 51°14.154 2°53.456 241.7 12.2 242 9.2
2008-12-18 08:43:52 51°14.146 2°53.431 241.9 12.3 243 9.3
2008-12-18 08:43:57 51°14.138 2°53.408 242.4 12.2 242 9.3
2008-12-18 08:44:01 51°14.132 2°53.388 242.3 12.3 242 9.3
2008-12-18 08:44:06 51°14.124 2°53.364 241.9 12.2 242 9.4
2008-12-18 08:44:11 51°14.116 2°53.341 241.8 12.2 242 9.3
2008-12-18 08:44:17 51°14.106 2°53.312 241.4 12.2 242 9.4
2008-12-18 08:44:21 51°14.1 2°53.293 241.3 12.2 244 9.5
2008-12-18 08:44:26 51°14.092 2°53.269 242.3 12.2 241 9.5
2008-12-18 08:44:32 51°14.083 2°53.241 242 12.2 242 9.5
2008-12-18 08:44:37 51°14.074 2°53.217 241.9 12.3 241 9.6
2008-12-18 08:44:41 51°14.069 2°53.198 241.6 12.2 243 9.5
2008-12-18 08:44:46 51°14.06 2°53.174 242.2 12.2 241 9.6
2008-12-18 08:44:51 51°14.052 2°53.151 241.8 12.2 242 9.6
2008-12-18 08:44:57 51°14.043 2°53.122 241.4 12.2 242 9.6
2008-12-18 08:45:02 51°14.034 2°53.099 241.7 12.2 240 9.7
2008-12-18 08:45:06 51°14.028 2°53.079 240.9 12.2 241 9.7
2008-12-18 08:45:12 51°14.018 2°53.052 240.4 12.2 240 9.6
2008-12-18 08:45:17 51°14.009 2°53.028 239.8 12.2 241 9.8
2008-12-18 08:45:22 51°14.001 2°53.004 240.5 12.3 242 9.8
2008-12-18 08:45:26 51°13.995 2°52.985 241.4 12.3 241 9.8
2008-12-18 08:45:32 51°13.985 2°52.956 241.5 12.3 242 9.8
2008-12-18 08:45:37 51°13.977 2°52.932 241.8 12.3 242 9.8
2008-12-18 08:45:41 51°13.971 2°52.913 241.6 12.3 241 9.8
2008-12-18 08:45:46 51°13.962 2°52.889 241.8 12.4 242 9.8
2008-12-18 08:45:52 51°13.953 2°52.86 241.9 12.3 242 9.7
2008-12-18 08:45:57 51°13.944 2°52.836 242.3 12.4 241 9.9
2008-12-18 08:46:01 51°13.938 2°52.817 241.9 12.4 243 9.8
2008-12-18 08:46:06 51°13.93 2°52.793 242.4 12.4 240 9.9
2008-12-18 08:46:12 51°13.92 2°52.764 241.7 12.5 242 9.9
2008-12-18 08:46:17 51°13.912 2°52.739 242 12.6 241 9.9
2008-12-18 08:46:21 51°13.905 2°52.72 242.1 12.6 242 9.9
2008-12-18 08:46:26 51°13.897 2°52.695 242.1 12.6 242 10
2008-12-18 08:46:32 51°13.887 2°52.666 242.2 12.7 242 9.9
2008-12-18 08:46:37 51°13.879 2°52.641 242.3 12.7 242 10
2008-12-18 08:46:41 51°13.872 2°52.621 242.6 12.8 243 9.9
2008-12-18 08:46:46 51°13.864 2°52.596 242.4 12.7 242 9.9
2008-12-18 08:46:51 51°13.855 2°52.572 242.4 12.7 242 9.9
2008-12-18 08:46:57 51°13.845 2°52.542 242.2 12.8 242 10
2008-12-18 08:47:01 51°13.839 2°52.522 242.3 12.8 242 10
2008-12-18 08:47:06 51°13.83 2°52.496 242.3 12.8 242 10.1
2008-12-18 08:47:11 51°13.822 2°52.472 242.6 12.7 242 10
2008-12-18 08:47:17 51°13.812 2°52.442 242.2 12.8 242 10
2008-12-18 08:47:21 51°13.806 2°52.422 242.2 12.8 243 10.1
2008-12-18 08:47:26 51°13.797 2°52.397 243 12.8 242 10.1
2008-12-18 08:47:31 51°13.789 2°52.372 242.7 12.7 243 10.1
2008-12-18 08:47:37 51°13.779 2°52.342 242.7 12.7 243 10.1
2008-12-18 08:47:42 51°13.771 2°52.317 243.1 12.8 242 10.1
2008-12-18 08:47:46 51°13.765 2°52.297 242.7 12.7 243 10.1
2008-12-18 08:47:52 51°13.755 2°52.267 242.9 12.8 242 10.1
2008-12-18 08:47:57 51°13.747 2°52.242 242.7 12.7 242 10.1
2008-12-18 08:48:01 51°13.74 2°52.222 242.8 12.7 241 10
2008-12-18 08:48:06 51°13.732 2°52.197 242.2 12.7 243 10.1
2008-12-18 08:48:12 51°13.722 2°52.167 242.6 12.8 242 10.2
2008-12-18 08:48:17 51°13.714 2°52.142 242.7 12.7 243 10.1
2008-12-18 08:48:21 51°13.707 2°52.122 242.9 12.7 242 10.2
2008-12-18 08:48:26 51°13.699 2°52.097 242.5 12.7 243 10.2
2008-12-18 08:48:32 51°13.689 2°52.067 242.3 12.7 241 10.2
2008-12-18 08:48:37 51°13.68 2°52.042 242.1 12.8 242 10.2
2008-12-18 08:48:41 51°13.674 2°52.022 242 12.7 243 10.1
2008-12-18 08:48:46 51°13.666 2°51.998 242.9 12.7 242 10.2
2008-12-18 08:48:52 51°13.656 2°51.968 242.5 12.7 243 10.2
2008-12-18 08:48:57 51°13.648 2°51.944 242.7 12.2 243 10.2
2008-12-18 08:49:01 51°13.642 2°51.926 242.9 11.8 241 10.3
2008-12-18 08:49:06 51°13.635 2°51.903 242.1 11.4 243 10.3
2008-12-18 08:49:11 51°13.627 2°51.881 242.6 11 242 10.3
2008-12-18 08:49:17 51°13.619 2°51.856 242.6 10.7 243 10.3
2008-12-18 08:49:22 51°13.612 2°51.835 242.6 10.5 242 10.4
2008-12-18 08:49:26 51°13.607 2°51.819 242.7 10.3 242 10.4
2008-12-18 08:49:32 51°13.599 2°51.796 242.1 10.1 242 10.4
2008-12-18 08:49:37 51°13.592 2°51.777 241.8 10 240 10.5
2008-12-18 08:49:41 51°13.587 2°51.761 240.7 9.8 242 10.4
2008-12-18 08:49:46 51°13.58 2°51.743 241.1 9.8 239 10.5
2008-12-18 08:49:52 51°13.572 2°51.72 240.5 9.6 241 10.4
2008-12-18 08:49:57 51°13.565 2°51.702 240.1 9.6 238 10.5
2008-12-18 08:50:01 51°13.56 2°51.687 239.7 9.5 241 10.5
2008-12-18 08:50:06 51°13.554 2°51.669 240 9.5 240 10.5
2008-12-18 08:50:12 51°13.546 2°51.648 240 9.5 241 10.5
2008-12-18 08:50:17 51°13.539 2°51.63 240.1 9.3 240 10.5
2008-12-18 08:50:21 51°13.535 2°51.616 240.4 8.8 241 10.4
2008-12-18 08:50:27 51°13.528 2°51.597 240.6 8.2 241 10.5
2008-12-18 08:50:32 51°13.523 2°51.582 241.1 7.7 241 10.5
2008-12-18 08:50:37 51°13.518 2°51.569 241.2 7.2 242 10.5
2008-12-18 08:50:41 51°13.515 2°51.558 241.5 6.8 242 10.6
2008-12-18 08:50:47 51°13.509 2°51.543 241.4 6.4 241 10.6
2008-12-18 08:50:52 51°13.505 2°51.531 241 6 241 10.7
2008-12-18 08:50:57 51°13.501 2°51.521 239.9 5.6 239 10.7
2008-12-18 08:51:01 51°13.498 2°51.513 239.3 5.3 239 10.6
2008-12-18 08:51:06 51°13.494 2°51.503 237.2 5 236 10.6
2008-12-18 08:51:11 51°13.491 2°51.495 234.9 4.7 236 10.7
2008-12-18 08:51:17 51°13.486 2°51.485 232.3 4.4 232 10.6
2008-12-18 08:51:21 51°13.484 2°51.48 230 4 232 10.6
2008-12-18 08:51:26 51°13.48 2°51.474 228.4 3.6 228 10.7
2008-12-18 08:51:31 51°13.477 2°51.468 226.1 3.2 230 10.6
2008-12-18 08:51:37 51°13.474 2°51.463 222.4 2.7 226 10.6
2008-12-18 08:51:41 51°13.473 2°51.46 219.1 2.3 226 10.6
2008-12-18 08:51:46 51°13.47 2°51.457 214.5 1.8 223 10.6
2008-12-18 08:51:52 51°13.469 2°51.454 210 1.4 228 10.5
2008-12-18 08:51:57 51°13.468 2°51.453 205 1.1 229 10.5
2008-12-18 08:52:01 51°13.467 2°51.451 201.1 1 234 10.5
2008-12-18 08:52:06 51°13.466 2°51.45 198.2 0.9 229 10.5
2008-12-18 08:52:11 51°13.466 2°51.448 194.9 0.8 232 10.6
2008-12-18 08:52:17 51°13.465 2°51.446 192.3 0.8 236 10.6
2008-12-18 08:52:22 51°13.464 2°51.445 190 0.8 235 10.6
2008-12-18 08:52:26 51°13.464 2°51.444 187.5 0.7 230 10.6
2008-12-18 08:52:32 51°13.463 2°51.442 186.2 0.7 233 10.7
2008-12-18 08:52:37 51°13.462 2°51.441 184.5 0.6 232 10.7
2008-12-18 08:52:41 51°13.462 2°51.44 183.2 0.6 232 10.7
2008-12-18 08:52:46 51°13.461 2°51.439 181.7 0.6 232 10.6
2008-12-18 08:52:52 51°13.461 2°51.438 180 0.5 233 10.6
2008-12-18 08:52:57 51°13.461 2°51.437 178.6 0.5 231 10.6
2008-12-18 08:53:01 51°13.46 2°51.437 177.1 0.5 234 10.7
2008-12-18 08:53:06 51°13.46 2°51.436 175.6 0.4 235 10.6
2008-12-18 08:53:12 51°13.459 2°51.435 174 0.4 233 10.7
2008-12-18 08:53:17 51°13.459 2°51.434 172.3 0.4 234 10.7
2008-12-18 08:53:21 51°13.459 2°51.433 170.2 0.4 237 10.6
2008-12-18 08:53:26 51°13.458 2°51.432 169.1 0.4 233 10.6
2008-12-18 08:53:31 51°13.458 2°51.432 167.4 0.4 238 10.6
2008-12-18 08:53:37 51°13.458 2°51.431 165.9 0.4 243 10.6
2008-12-18 08:53:41 51°13.458 2°51.43 164.3 0.3 245 10.6
2008-12-18 08:53:46 51°13.457 2°51.43 162.6 0.4 245 10.7
2008-12-18 08:53:52 51°13.457 2°51.429 160.8 0.3 246 10.7
2008-12-18 08:53:57 51°13.457 2°51.428 159.1 0.3 251 10.6
2008-12-18 08:54:01 51°13.457 2°51.428 157.2 0.3 236 10.6
2008-12-18 08:54:06 51°13.457 2°51.427 156 0.3 243 10.6
2008-12-18 08:54:11 51°13.457 2°51.427 154.3 0.3 251 10.6
2008-12-18 08:54:17 51°13.457 2°51.426 152.7 0.2 260 10.6
2008-12-18 08:54:22 51°13.457 2°51.426 151.2 0.3 262 10.6
2008-12-18 08:54:26 51°13.457 2°51.425 149.7 0.3 266 10.6
2008-12-18 08:54:32 51°13.456 2°51.424 148.1 0.3 261 10.5
2008-12-18 08:54:37 51°13.456 2°51.424 146.4 0.3 263 10.6
2008-12-18 08:54:41 51°13.456 2°51.423 144.7 0.3 264 10.6
2008-12-18 08:54:47 51°13.456 2°51.423 143.2 0.2 265 10.6
2008-12-18 08:54:52 51°13.456 2°51.422 141.8 0.3 268 10.6
2008-12-18 08:54:57 51°13.456 2°51.421 140.3 0.3 271 10.6
2008-12-18 08:55:01 51°13.456 2°51.421 138.9 0.3 273 10.6
2008-12-18 08:55:06 51°13.456 2°51.42 137.3 0.3 272 10.6
2008-12-18 08:55:12 51°13.456 2°51.42 135.8 0.3 266 10.6
2008-12-18 08:55:17 51°13.456 2°51.419 134.3 0.3 267 10.6
2008-12-18 08:55:21 51°13.456 2°51.419 132.9 0.3 280 10.6
2008-12-18 08:55:26 51°13.456 2°51.418 131.3 0.3 267 10.6
2008-12-18 08:55:32 51°13.456 2°51.417 129.9 0.3 269 10.6
2008-12-18 08:55:37 51°13.456 2°51.417 128.5 0.2 277 10.6
2008-12-18 08:55:41 51°13.456 2°51.416 126.8 0.3 279 10.6
2008-12-18 08:55:46 51°13.456 2°51.416 125.6 0.3 274 10.6
2008-12-18 08:55:51 51°13.456 2°51.415 124 0.3 261 10.6
2008-12-18 08:55:57 51°13.456 2°51.414 122.5 0.2 273 10.6
2008-12-18 08:56:01 51°13.457 2°51.414 121 0.2 280 10.6
2008-12-18 08:56:06 51°13.457 2°51.413 119.6 0.2 270 10.6
2008-12-18 08:56:11 51°13.457 2°51.413 118.4 0.2 290 10.6
2008-12-18 08:56:17 51°13.457 2°51.412 117 0.2 286 10.6
2008-12-18 08:56:21 51°13.457 2°51.411 115.7 0.2 274 10.6
2008-12-18 08:56:26 51°13.457 2°51.411 114.7 0.3 277 10.6
2008-12-18 08:56:31 51°13.457 2°51.411 113.5 0.2 281 10.6
2008-12-18 08:56:37 51°13.457 2°51.41 112.4 0.2 287 10.6
2008-12-18 08:56:41 51°13.457 2°51.409 111.4 0.2 285 10.6
2008-12-18 08:56:46 51°13.457 2°51.409 110.6 0.2 285 10.6
2008-12-18 08:56:52 51°13.457 2°51.408 109.7 0.2 293 10.6
2008-12-18 08:56:57 51°13.457 2°51.408 108.7 0.3 273 10.6
2008-12-18 08:57:01 51°13.457 2°51.407 107.8 0.3 300 10.6
2008-12-18 08:57:07 51°13.456 2°51.406 107 0.2 279 10.6
2008-12-18 08:57:12 51°13.456 2°51.406 106.2 0.3 293 10.6
2008-12-18 08:57:17 51°13.457 2°51.405 105.5 0.3 278 10.6
2008-12-18 08:57:21 51°13.457 2°51.405 104.7 0.3 299 10.6
2008-12-18 08:57:26 51°13.457 2°51.404 104.1 0.3 288 10.6
2008-12-18 08:57:32 51°13.457 2°51.404 103.6 0.2 291 10.6
2008-12-18 08:57:37 51°13.457 2°51.403 103.1 0.2 274 10.6
2008-12-18 08:57:41 51°13.457 2°51.403 102.5 0.3 297 10.6
2008-12-18 08:57:46 51°13.458 2°51.402 102 0.2 278 10.6
2008-12-18 08:57:51 51°13.458 2°51.402 101.7 0.2 292 10.6
2008-12-18 08:57:57 51°13.458 2°51.401 101.4 0.2 285 10.6
2008-12-18 08:58:01 51°13.458 2°51.401 101.2 0.2 288 10.6
2008-12-18 08:58:06 51°13.458 2°51.4 100.9 0.2 281 10.6
2008-12-18 08:58:11 51°13.458 2°51.4 100.7 0.3 288 10.5
2008-12-18 08:58:17 51°13.458 2°51.399 100.5 0.3 275 10.6
2008-12-18 08:58:21 51°13.458 2°51.399 100.4 0.3 297 10.6
2008-12-18 08:58:26 51°13.458 2°51.398 100.4 0.2 280 10.6
2008-12-18 08:58:31 51°13.458 2°51.398 100.4 0.3 284 10.6
2008-12-18 08:58:37 51°13.459 2°51.397 100.4 0.3 285 10.6
2008-12-18 08:58:42 51°13.459 2°51.397 100.4 0.3 287 10.6
2008-12-18 08:58:46 51°13.459 2°51.396 100.5 0.3 280 10.6
2008-12-18 08:58:52 51°13.459 2°51.396 100.5 0.3 299 10.6
2008-12-18 08:58:57 51°13.459 2°51.395 100.6 0.3 268 10.6
2008-12-18 08:59:02 51°13.459 2°51.394 100.6 0.3 288 10.6
2008-12-18 08:59:06 51°13.459 2°51.394 100.8 0.3 286 10.6
2008-12-18 08:59:12 51°13.459 2°51.393 100.9 0.3 272 10.6
2008-12-18 08:59:17 51°13.459 2°51.393 101.1 0.3 267 10.6
2008-12-18 08:59:21 51°13.459 2°51.393 101.2 0.1 337 10.6
2008-12-18 08:59:26 51°13.459 2°51.393 101.4 0.3 111 10.6
2008-12-18 08:59:32 51°13.458 2°51.395 101.8 0.7 98 10.6
2008-12-18 08:59:37 51°13.458 2°51.397 101.4 1 102 10.6
2008-12-18 08:59:41 51°13.458 2°51.4 100.4 1.6 97 10.6
2008-12-18 08:59:46 51°13.458 2°51.405 99 2.3 96 10.5
2008-12-18 08:59:52 51°13.458 2°51.412 96.5 2.9 91 10.5
2008-12-18 08:59:57 51°13.458 2°51.42 93.2 3.5 86 10.5
2008-12-18 09:00:01 51°13.459 2°51.427 88.6 4 81 10.6
2008-12-18 09:00:06 51°13.46 2°51.436 83.7 4.4 74 10.5
2008-12-18 09:00:12 51°13.463 2°51.448 78.2 4.7 70 10.5
2008-12-18 09:00:17 51°13.466 2°51.458 73.2 5 65 10.4
2008-12-18 09:00:21 51°13.468 2°51.466 68.7 5.3 60 10.4
2008-12-18 09:00:26 51°13.473 2°51.477 64 5.5 60 10.4
2008-12-18 09:00:31 51°13.476 2°51.487 61.9 5.4 58 10.4
2008-12-18 09:00:37 51°13.481 2°51.498 61.9 5 60 10.4
2008-12-18 09:00:41 51°13.483 2°51.505 62.1 4.7 59 10.5
2008-12-18 09:00:46 51°13.487 2°51.514 61.9 4.4 56 10.5
2008-12-18 09:00:51 51°13.49 2°51.521 60.6 4.2 56 10.5
2008-12-18 09:00:57 51°13.494 2°51.53 59.3 4 52 10.5
2008-12-18 09:01:02 51°13.497 2°51.537 58 3.7 53 10.5
2008-12-18 09:01:06 51°13.499 2°51.541 56.9 3.4 49 10.5
2008-12-18 09:01:12 51°13.503 2°51.547 55.2 3 50 10.5
2008-12-18 09:01:17 51°13.506 2°51.551 53.5 2.6 43 10.5
2008-12-18 09:01:21 51°13.508 2°51.554 50.8 2.3 40 10.6
2008-12-18 09:01:26 51°13.51 2°51.557 46.8 2 31 10.5
2008-12-18 09:01:32 51°13.513 2°51.559 42.7 1.7 27 10.5
2008-12-18 09:01:37 51°13.515 2°51.56 38.1 1.5 19 10.5
2008-12-18 09:01:41 51°13.517 2°51.56 33.8 1.3 12 10.5
2008-12-18 09:01:46 51°13.518 2°51.56 29.6 1.1 2 10.5
2008-12-18 09:01:52 51°13.52 2°51.56 25.4 0.9 350 10.5
2008-12-18 09:01:57 51°13.521 2°51.559 20.8 0.7 340 10.5
2008-12-18 09:02:01 51°13.521 2°51.559 16.6 0.7 335 10.5
2008-12-18 09:02:06 51°13.522 2°51.558 12.6 0.7 332 10.4
2008-12-18 09:02:12 51°13.523 2°51.557 9 0.8 326 10.5
2008-12-18 09:02:17 51°13.524 2°51.556 5.9 0.8 327 10.5
2008-12-18 09:02:21 51°13.524 2°51.555 3.2 0.8 326 10.3
2008-12-18 09:02:26 51°13.525 2°51.554 0.5 0.7 318 10.3
2008-12-18 09:02:31 51°13.526 2°51.554 358.1 0.7 322 10.5
2008-12-18 09:02:37 51°13.527 2°51.552 356.2 0.7 316 10.5
2008-12-18 09:02:41 51°13.527 2°51.551 354.8 0.7 319 10.5
2008-12-18 09:02:46 51°13.528 2°51.55 353.7 0.8 312 10.5
2008-12-18 09:02:51 51°13.529 2°51.549 352.5 0.7 316 10.4
2008-12-18 09:02:57 51°13.53 2°51.547 351.6 0.8 310 10.5
2008-12-18 09:03:02 51°13.53 2°51.546 350.3 0.7 314 10.6
2008-12-18 09:03:06 51°13.531 2°51.545 349.7 0.8 312 10.5
2008-12-18 09:03:12 51°13.532 2°51.544 348.7 0.7 314 10.5
2008-12-18 09:03:17 51°13.533 2°51.543 347.9 0.7 309 10.5
2008-12-18 09:03:22 51°13.533 2°51.542 347.2 0.8 312 10.5
2008-12-18 09:03:26 51°13.534 2°51.541 346.5 0.8 311 10.5
2008-12-18 09:03:32 51°13.535 2°51.539 345.8 0.8 313 10.5
2008-12-18 09:03:37 51°13.535 2°51.538 345 0.8 309 10.5
2008-12-18 09:03:41 51°13.536 2°51.537 344.3 0.8 311 10.5
2008-12-18 09:03:46 51°13.537 2°51.536 343.5 0.8 308 10.5
2008-12-18 09:03:52 51°13.538 2°51.534 342.7 0.8 312 10.5
2008-12-18 09:03:57 51°13.538 2°51.532 341.8 0.8 303 10.5
2008-12-18 09:04:01 51°13.539 2°51.531 340.8 0.8 311 10.6
2008-12-18 09:04:06 51°13.539 2°51.53 339.9 0.8 307 10.5
2008-12-18 09:04:12 51°13.54 2°51.528 339.2 0.8 309 10.5
2008-12-18 09:04:17 51°13.541 2°51.527 338.3 0.8 310 10.5
2008-12-18 09:04:21 51°13.541 2°51.526 337.2 0.8 304 10.4
2008-12-18 09:04:26 51°13.542 2°51.525 336.3 0.8 303 10.5
2008-12-18 09:04:31 51°13.543 2°51.523 335.6 0.8 308 10.5
2008-12-18 09:04:37 51°13.543 2°51.522 334.8 0.8 303 10.5
2008-12-18 09:04:41 51°13.544 2°51.521 333.9 0.8 304 10.5
2008-12-18 09:04:46 51°13.545 2°51.519 333.3 0.8 299 10.5
2008-12-18 09:04:51 51°13.545 2°51.518 332.4 0.8 305 10.6
2008-12-18 09:04:57 51°13.546 2°51.516 331.7 0.8 297 10.6
2008-12-18 09:05:01 51°13.546 2°51.515 331.1 0.8 298 10.6
2008-12-18 09:05:06 51°13.547 2°51.513 330.3 0.8 300 10.6
2008-12-18 09:05:11 51°13.547 2°51.512 329.5 0.8 301 10.6
2008-12-18 09:05:17 51°13.548 2°51.51 328.9 0.8 300 10.5
2008-12-18 09:05:22 51°13.548 2°51.508 327.9 0.8 301 10.5
2008-12-18 09:05:26 51°13.549 2°51.507 327.3 0.8 297 10.5
2008-12-18 09:05:32 51°13.549 2°51.506 326.5 0.8 302 10.5
2008-12-18 09:05:37 51°13.55 2°51.504 325.9 0.8 294 10.5
2008-12-18 09:05:41 51°13.55 2°51.503 325.3 0.7 296 10.5
2008-12-18 09:05:46 51°13.551 2°51.501 324.5 0.8 296 10.6
2008-12-18 09:05:52 51°13.551 2°51.5 323.8 0.8 296 10.6
2008-12-18 09:05:57 51°13.551 2°51.498 323.2 0.8 299 10.6
2008-12-18 09:06:01 51°13.552 2°51.497 322.6 0.8 295 10.5
2008-12-18 09:06:06 51°13.552 2°51.495 321.8 0.7 298 10.5
2008-12-18 09:06:12 51°13.553 2°51.494 321.4 0.8 295 10.6
2008-12-18 09:06:17 51°13.554 2°51.492 320.5 1 310 10.5
2008-12-18 09:06:21 51°13.555 2°51.489 320.3 1.8 308 10.6
2008-12-18 09:06:26 51°13.557 2°51.486 320.7 2.2 318 10.5
2008-12-18 09:06:32 51°13.561 2°51.481 325.6 2.8 322 10.5
2008-12-18 09:06:37 51°13.565 2°51.478 331 3.4 331 10.5
2008-12-18 09:06:41 51°13.569 2°51.475 338.5 3.7 339 10.5
2008-12-18 09:06:46 51°13.574 2°51.474 347.4 3.8 349 10.4
2008-12-18 09:06:52 51°13.58 2°51.473 355.9 3.9 355 10.5
2008-12-18 09:06:57 51°13.585 2°51.473 4.3 3.8 4 10.4
2008-12-18 09:07:01 51°13.59 2°51.474 12.4 3.8 13 10.5
2008-12-18 09:07:06 51°13.595 2°51.477 20.1 3.8 21 10.5
2008-12-18 09:07:11 51°13.599 2°51.48 28 3.8 30 10.4
2008-12-18 09:07:17 51°13.604 2°51.487 35.8 3.8 39 10.5
2008-12-18 09:07:22 51°13.608 2°51.493 43.7 3.9 46 10.4
2008-12-18 09:07:26 51°13.611 2°51.498 51.3 4.1 53 10.4
2008-12-18 09:07:32 51°13.615 2°51.507 56.5 4.5 53 10.4
2008-12-18 09:07:37 51°13.619 2°51.517 59.9 5.2 56 10.5
2008-12-18 09:07:41 51°13.623 2°51.525 60.9 6.1 55 10.5
2008-12-18 09:07:46 51°13.628 2°51.538 60 7.1 56 10.5
2008-12-18 09:07:52 51°13.636 2°51.555 59.6 8 55 10.5
2008-12-18 09:07:57 51°13.643 2°51.571 58.8 8.7 55 10.5
2008-12-18 09:08:01 51°13.649 2°51.585 58 9.4 57 10.4
2008-12-18 09:08:06 51°13.656 2°51.603 58.8 9.9 57 10.4
2008-12-18 09:08:11 51°13.664 2°51.622 59.5 10.2 57 10.4
2008-12-18 09:08:17 51°13.674 2°51.645 59.7 10.6 57 10.3
2008-12-18 09:08:21 51°13.68 2°51.662 59.8 10.8 58 10.3
2008-12-18 09:08:26 51°13.689 2°51.682 60.1 11 57 10.3
2008-12-18 09:08:32 51°13.698 2°51.708 60.2 11.1 61 10.2
2008-12-18 09:08:37 51°13.706 2°51.729 61.9 11.2 60 10.2
2008-12-18 09:08:41 51°13.712 2°51.746 62.5 11.3 62 10.3
2008-12-18 09:08:47 51°13.72 2°51.773 63.9 11.4 63 10.2
2008-12-18 09:08:52 51°13.728 2°51.795 64.7 11.4 61 10.2
2008-12-18 09:08:57 51°13.735 2°51.818 64.5 11.5 64 10.2
2008-12-18 09:09:01 51°13.741 2°51.836 65.9 11.5 64 10.2
2008-12-18 09:09:06 51°13.748 2°51.859 66.3 11.5 62 10.2
2008-12-18 09:09:12 51°13.756 2°51.886 65.5 11.4 64 10.1
2008-12-18 09:09:17 51°13.764 2°51.909 65.6 11.5 63 10.1
2008-12-18 09:09:21 51°13.769 2°51.927 66 11.5 63 10.1
2008-12-18 09:09:26 51°13.777 2°51.949 65.8 11.5 63 10.1
2008-12-18 09:09:31 51°13.784 2°51.972 65.8 11.6 62 10.1
2008-12-18 09:09:37 51°13.793 2°51.999 64.8 11.5 61 10.1
2008-12-18 09:09:41 51°13.799 2°52.017 64.1 11.4 62 10.2
2008-12-18 09:09:46 51°13.806 2°52.039 64.3 11.5 61 10.1
2008-12-18 09:09:52 51°13.816 2°52.066 63.9 11.5 61 10.1
2008-12-18 09:09:57 51°13.823 2°52.089 63.5 11.5 62 10.1
2008-12-18 09:10:01 51°13.829 2°52.106 64.1 11.4 61 10.1
2008-12-18 09:10:06 51°13.837 2°52.128 63.6 11.4 63 10.1
2008-12-18 09:10:11 51°13.844 2°52.15 64.1 11.5 61 10
2008-12-18 09:10:17 51°13.854 2°52.176 63.8 11.3 62 10
2008-12-18 09:10:22 51°13.861 2°52.199 63.6 11.4 62 10.1
2008-12-18 09:10:26 51°13.867 2°52.216 64.1 11.4 62 10.1
2008-12-18 09:10:32 51°13.876 2°52.243 63.9 11.4 61 10.1
2008-12-18 09:10:37 51°13.883 2°52.265 64.3 11.4 63 10
2008-12-18 09:10:41 51°13.889 2°52.284 64.6 11.4 63 10.1
2008-12-18 09:10:46 51°13.896 2°52.306 65.5 11.4 64 10.2
2008-12-18 09:10:52 51°13.904 2°52.334 65.7 11.5 63 10.1
2008-12-18 09:10:57 51°13.911 2°52.356 65.7 11.5 63 10
2008-12-18 09:11:01 51°13.916 2°52.375 65.5 11.4 64 10.1
2008-12-18 09:11:06 51°13.923 2°52.398 66.2 11.4 65 10
2008-12-18 09:11:12 51°13.932 2°52.424 66.8 11.4 63 10
2008-12-18 09:11:17 51°13.938 2°52.447 65.9 11.3 64 10
2008-12-18 09:11:21 51°13.944 2°52.465 65.6 11.4 64 10.1
2008-12-18 09:11:26 51°13.952 2°52.488 65.9 11.4 61 10
2008-12-18 09:11:32 51°13.96 2°52.514 64.2 11.3 65 10
2008-12-18 09:11:37 51°13.968 2°52.536 65.1 11.4 61 10
2008-12-18 09:11:41 51°13.974 2°52.554 64.5 11.4 63 10
2008-12-18 09:11:46 51°13.981 2°52.576 64.3 11.3 62 10
2008-12-18 09:11:52 51°13.99 2°52.602 64.6 11.3 61 10
2008-12-18 09:11:57 51°13.997 2°52.625 63.7 11.3 63 9.9
2008-12-18 09:12:01 51°14.003 2°52.642 64 11.3 61 10
2008-12-18 09:12:06 51°14.01 2°52.664 63.8 11.3 63 9.9
2008-12-18 09:12:11 51°14.018 2°52.686 64.3 11.3 61 9.9
2008-12-18 09:12:17 51°14.027 2°52.713 63.8 11.3 63 9.9
2008-12-18 09:12:22 51°14.034 2°52.735 64.1 11.3 63 9.9
2008-12-18 09:12:26 51°14.039 2°52.753 64.9 11.4 63 9.9
2008-12-18 09:12:32 51°14.048 2°52.78 65.4 11.5 64 9.9
2008-12-18 09:12:37 51°14.055 2°52.803 66.3 11.4 64 9.8
2008-12-18 09:12:41 51°14.06 2°52.821 66.7 11.4 66 9.8
2008-12-18 09:12:47 51°14.068 2°52.849 67.1 11.4 64 9.9
2008-12-18 09:12:52 51°14.075 2°52.872 66.5 11.4 64 9.8
2008-12-18 09:12:57 51°14.082 2°52.894 66.3 11.5 62 9.8
2008-12-18 09:13:01 51°14.088 2°52.912 65.4 11.5 63 9.8
2008-12-18 09:13:06 51°14.095 2°52.935 64.9 11.5 64 9.8
2008-12-18 09:13:12 51°14.104 2°52.962 65.6 11.5 62 9.7
2008-12-18 09:13:17 51°14.111 2°52.984 64.6 11.4 62 9.7
2008-12-18 09:13:21 51°14.117 2°53.003 64.1 11.4 64 9.7
2008-12-18 09:13:26 51°14.124 2°53.025 65.4 11.5 60 9.6
2008-12-18 09:13:32 51°14.133 2°53.051 64.4 11.4 62 9.6
2008-12-18 09:13:37 51°14.14 2°53.075 64 11.5 64 9.7
2008-12-18 09:13:41 51°14.147 2°53.092 65.6 11.5 61 9.6
2008-12-18 09:13:46 51°14.153 2°53.115 65 11.4 65 9.5
2008-12-18 09:13:52 51°14.162 2°53.142 65.6 11.5 61 9.5
2008-12-18 09:13:57 51°14.169 2°53.164 65.3 11.4 64 9.5
2008-12-18 09:14:01 51°14.175 2°53.182 65.5 11.4 62 9.5
2008-12-18 09:14:06 51°14.183 2°53.204 65.1 11.3 62 9.5
2008-12-18 09:14:11 51°14.189 2°53.227 64.3 11.4 66 9.4
2008-12-18 09:14:17 51°14.198 2°53.253 66.1 11.4 61 9.4
2008-12-18 09:14:21 51°14.203 2°53.272 64.5 11.4 66 9.3
2008-12-18 09:14:26 51°14.211 2°53.294 65.4 11.4 60 9.3
2008-12-18 09:14:31 51°14.218 2°53.316 64.4 11.3 65 9.3
2008-12-18 09:14:37 51°14.226 2°53.343 64.5 11.3 63 9.3
2008-12-18 09:14:42 51°14.233 2°53.366 65.5 11.3 64 9.2
2008-12-18 09:14:46 51°14.239 2°53.383 65.3 11.4 62 9.1
2008-12-18 09:14:52 51°14.248 2°53.41 64.9 11.3 63 9.1
2008-12-18 09:14:57 51°14.255 2°53.432 64.4 11.2 61 9.1
2008-12-18 09:15:02 51°14.262 2°53.454 63.8 11.2 65 9
2008-12-18 09:15:07 51°14.27 2°53.476 64.8 11.3 60 9
2008-12-18 09:15:12 51°14.277 2°53.498 63.9 11.3 62 9
2008-12-18 09:15:17 51°14.285 2°53.519 62.9 11.3 58 8.9
2008-12-18 09:15:21 51°14.292 2°53.536 61.5 11.3 58 8.9
2008-12-18 09:15:26 51°14.3 2°53.557 60.4 11.3 57 8.9
2008-12-18 09:15:32 51°14.31 2°53.583 59.8 11.3 57 8.9
2008-12-18 09:15:37 51°14.32 2°53.602 59.1 11.2 54 9
2008-12-18 09:15:41 51°14.326 2°53.619 57.4 11.2 55 9
2008-12-18 09:15:46 51°14.337 2°53.637 57 11.2 48 9
2008-12-18 09:15:52 51°14.349 2°53.66 53.3 11.2 52 9
2008-12-18 09:15:57 51°14.36 2°53.678 52.8 11.2 47 9.1
2008-12-18 09:16:01 51°14.368 2°53.693 51.3 11.2 46 9
2008-12-18 09:16:06 51°14.38 2°53.709 50 11.2 42 9
2008-12-18 09:16:12 51°14.394 2°53.728 47.1 11.2 39 9
2008-12-18 09:16:17 51°14.406 2°53.744 44.7 11.2 36 9
2008-12-18 09:16:21 51°14.417 2°53.753 41.6 11.2 30 9.1
2008-12-18 09:16:26 51°14.43 2°53.766 37.7 11.2 31 9.2
2008-12-18 09:16:31 51°14.445 2°53.775 35 11.2 21 9.1
2008-12-18 09:16:37 51°14.463 2°53.786 30.1 11.3 19 9
2008-12-18 09:16:42 51°14.478 2°53.792 25 11.4 14 9.1
2008-12-18 09:16:46 51°14.49 2°53.797 21.8 11.3 15 9
2008-12-18 09:16:52 51°14.509 2°53.801 19.9 11.4 7 9.1
2008-12-18 09:16:57 51°14.525 2°53.805 15.5 11.4 8 9.3
2008-12-18 09:17:02 51°14.541 2°53.805 12.9 11.5 1 9
2008-12-18 09:17:07 51°14.557 2°53.805 9.4 11.6 1 9.2
2008-12-18 09:17:12 51°14.573 2°53.805 6.9 11.6 358 9.2
2008-12-18 09:17:17 51°14.589 2°53.803 5.3 11.6 357 9.1
2008-12-18 09:17:21 51°14.602 2°53.802 3.5 11.7 356 9.2
2008-12-18 09:17:26 51°14.618 2°53.799 2.4 11.8 354 9.6
2008-12-18 09:17:32 51°14.637 2°53.794 0.7 11.9 350 9.7
2008-12-18 09:17:37 51°14.653 2°53.788 357.1 11.9 348 10
2008-12-18 09:17:41 51°14.666 2°53.784 355.1 12 346 9.7
2008-12-18 09:17:46 51°14.682 2°53.775 352.3 12 341 9.7
2008-12-18 09:17:52 51°14.701 2°53.765 348.8 12 341 9.6
2008-12-18 09:17:57 51°14.716 2°53.753 346 12 334 9.5
2008-12-18 09:18:01 51°14.728 2°53.744 342.1 12 336 9.5
2008-12-18 09:18:06 51°14.743 2°53.731 340.3 12.1 330 9.6
2008-12-18 09:18:12 51°14.76 2°53.715 337.6 12.1 330 9.6
2008-12-18 09:18:17 51°14.774 2°53.699 334.9 12.2 324 9.6
2008-12-18 09:18:21 51°14.785 2°53.687 331.2 12.2 324 9.6
2008-12-18 09:18:26 51°14.798 2°53.669 328.8 12.3 318 9.6
2008-12-18 09:18:32 51°14.813 2°53.647 325.1 12.3 319 9.4
2008-12-18 09:18:37 51°14.825 2°53.627 322.5 12.3 313 9.4
2008-12-18 09:18:41 51°14.834 2°53.611 318.8 12.3 311 9.6
2008-12-18 09:18:46 51°14.844 2°53.589 315.4 12.3 307 9.3
2008-12-18 09:18:51 51°14.854 2°53.567 312 12.3 305 9.4
2008-12-18 09:18:57 51°14.865 2°53.539 309.6 12.5 300 9
2008-12-18 09:19:02 51°14.873 2°53.515 305.2 12.4 298 9.1
2008-12-18 09:19:06 51°14.879 2°53.495 302.8 12.4 295 9
2008-12-18 09:19:12 51°14.886 2°53.465 299.3 12.4 291 9.2
2008-12-18 09:19:17 51°14.893 2°53.439 295.9 12.4 290 9.5
2008-12-18 09:19:22 51°14.897 2°53.412 293.1 12.5 285 9.3
2008-12-18 09:19:26 51°14.901 2°53.391 289.2 12.5 285 9.4
2008-12-18 09:19:32 51°14.905 2°53.359 287 12.5 282 9.3
2008-12-18 09:19:37 51°14.907 2°53.331 284.5 12.5 277 9.4
2008-12-18 09:19:42 51°14.909 2°53.304 280.5 12.5 276 9.3
2008-12-18 09:19:46 51°14.91 2°53.282 277.9 12.5 274 9.3
2008-12-18 09:19:52 51°14.911 2°53.249 275.3 12.5 272 9.3
2008-12-18 09:19:57 51°14.911 2°53.221 273.7 12.6 271 9.4
2008-12-18 09:20:01 51°14.91 2°53.199 272.2 12.6 269 9.4
2008-12-18 09:20:07 51°14.91 2°53.165 270.6 12.6 269 9.4
2008-12-18 09:20:12 51°14.909 2°53.137 270.1 12.7 267 9.5
2008-12-18 09:20:17 51°14.908 2°53.109 268.7 12.7 267 9.4
2008-12-18 09:20:21 51°14.908 2°53.087 268.1 12.7 266 9.4
2008-12-18 09:20:26 51°14.906 2°53.059 267.4 12.7 266 9.3
2008-12-18 09:20:32 51°14.904 2°53.026 266.6 12.6 263 9.3
2008-12-18 09:20:37 51°14.901 2°52.999 264.3 12.6 261 9.3
2008-12-18 09:20:41 51°14.899 2°52.977 262.3 12.6 260 9.4
2008-12-18 09:20:46 51°14.896 2°52.949 260.7 12.6 259 9.4
2008-12-18 09:20:52 51°14.892 2°52.916 259.4 12.6 258 9.3
2008-12-18 09:20:57 51°14.888 2°52.889 258.6 12.6 258 9.3
2008-12-18 09:21:02 51°14.884 2°52.862 257.8 12.6 256 9.4
2008-12-18 09:21:06 51°14.88 2°52.841 256.7 12.6 257 9.1
2008-12-18 09:21:12 51°14.875 2°52.808 256.4 12.6 256 9
2008-12-18 09:21:17 51°14.871 2°52.781 256 12.6 256 9
2008-12-18 09:21:22 51°14.867 2°52.755 255.8 12.5 256 9
2008-12-18 09:21:26 51°14.864 2°52.733 255.8 12.5 257 8.9
2008-12-18 09:21:32 51°14.859 2°52.701 256.2 12.5 257 8.9
2008-12-18 09:21:37 51°14.855 2°52.674 256.4 12.5 257 8.9
2008-12-18 09:21:42 51°14.851 2°52.647 256.8 12.5 257 8.9
2008-12-18 09:21:46 51°14.848 2°52.625 257.1 12.5 256 9
2008-12-18 09:21:52 51°14.842 2°52.593 256.7 12.6 255 8.9
2008-12-18 09:21:57 51°14.838 2°52.566 255.8 12.6 256 8.9
2008-12-18 09:22:01 51°14.835 2°52.545 255.8 12.6 256 8.9
2008-12-18 09:22:07 51°14.829 2°52.512 256.3 12.6 255 8.9
2008-12-18 09:22:12 51°14.825 2°52.485 256.4 12.6 255 8.9
2008-12-18 09:22:17 51°14.82 2°52.458 256.3 12.6 255 9
2008-12-18 09:22:21 51°14.817 2°52.437 256 12.6 254 8.9
2008-12-18 09:22:27 51°14.811 2°52.405 255 12.6 253 8.9
2008-12-18 09:22:32 51°14.805 2°52.378 254.3 12.6 253 9
2008-12-18 09:22:37 51°14.8 2°52.351 253.8 12.6 253 8.9
2008-12-18 09:22:41 51°14.796 2°52.33 253.6 12.6 253 8.9
2008-12-18 09:22:46 51°14.791 2°52.303 253.5 12.6 252 9
2008-12-18 09:22:52 51°14.785 2°52.271 253.2 12.7 254 8.9
2008-12-18 09:22:57 51°14.779 2°52.245 253.5 12.6 253 9
2008-12-18 09:23:01 51°14.776 2°52.223 253.9 12.6 255 9
2008-12-18 09:23:06 51°14.771 2°52.196 255 12.7 254 8.9
2008-12-18 09:23:11 51°14.767 2°52.169 255.1 12.6 256 9
2008-12-18 09:23:17 51°14.761 2°52.137 255.8 12.7 255 9
2008-12-18 09:23:22 51°14.757 2°52.109 256.2 12.7 256 8.9
2008-12-18 09:23:26 51°14.754 2°52.088 256.7 12.7 258 9
2008-12-18 09:23:32 51°14.75 2°52.055 257.6 12.7 258 9
2008-12-18 09:23:37 51°14.746 2°52.027 258.2 12.7 258 9
2008-12-18 09:23:41 51°14.743 2°52.005 259.2 12.7 259 9.1
2008-12-18 09:23:46 51°14.74 2°51.978 259.8 12.7 259 9
2008-12-18 09:23:52 51°14.736 2°51.945 260.1 12.7 259 9
2008-12-18 09:23:57 51°14.733 2°51.917 260.4 12.7 261 9.1
2008-12-18 09:24:01 51°14.731 2°51.895 261.2 12.7 260 9.1
2008-12-18 09:24:06 51°14.728 2°51.867 261.4 12.7 261 9.1
2008-12-18 09:24:12 51°14.725 2°51.833 261.8 12.8 262 9
2008-12-18 09:24:17 51°14.723 2°51.805 262.8 12.8 263 9.1
2008-12-18 09:24:21 51°14.721 2°51.783 263.6 12.8 262 9.1
2008-12-18 09:24:27 51°14.719 2°51.749 264 12.8 264 9.2
2008-12-18 09:24:32 51°14.717 2°51.721 264.9 12.9 264 9.2
2008-12-18 09:24:37 51°14.715 2°51.692 265.1 12.9 264 9.1
2008-12-18 09:24:41 51°14.713 2°51.67 265.2 12.9 264 9.2
2008-12-18 09:24:47 51°14.711 2°51.636 265.4 12.9 264 9.2
2008-12-18 09:24:52 51°14.709 2°51.608 265.4 12.9 264 9.2
2008-12-18 09:24:57 51°14.706 2°51.579 265.2 12.9 264 9.3
2008-12-18 09:25:01 51°14.705 2°51.557 265.3 12.9 264 9.3
2008-12-18 09:25:06 51°14.703 2°51.528 265.5 12.9 264 9.4
2008-12-18 09:25:11 51°14.701 2°51.5 265.4 12.9 263 9.3
2008-12-18 09:25:17 51°14.698 2°51.466 265.2 12.9 263 9.4
2008-12-18 09:25:22 51°14.696 2°51.438 265 12.9 264 9.5
2008-12-18 09:25:26 51°14.695 2°51.415 265 12.9 263 9.5
2008-12-18 09:25:32 51°14.692 2°51.381 264.8 12.9 263 9.6
2008-12-18 09:25:37 51°14.689 2°51.353 264.3 12.9 262 9.5
2008-12-18 09:25:41 51°14.687 2°51.33 263.7 12.9 262 9.6
2008-12-18 09:25:46 51°14.685 2°51.302 263.5 12.9 263 9.6
2008-12-18 09:25:52 51°14.682 2°51.268 263.6 12.9 262 9.6
2008-12-18 09:25:57 51°14.679 2°51.24 263.6 12.9 261 9.7
2008-12-18 09:26:02 51°14.677 2°51.211 263.3 12.9 262 9.7
2008-12-18 09:26:06 51°14.674 2°51.189 263 12.9 260 9.7
2008-12-18 09:26:12 51°14.671 2°51.155 262.4 12.9 261 9.7
2008-12-18 09:26:17 51°14.668 2°51.127 262.3 13 261 9.7
2008-12-18 09:26:21 51°14.666 2°51.104 262.3 12.9 260 9.8
2008-12-18 09:26:27 51°14.662 2°51.071 262.2 12.9 260 9.8
2008-12-18 09:26:32 51°14.659 2°51.042 261.9 12.9 260 9.7
2008-12-18 09:26:37 51°14.656 2°51.014 261.6 13 260 9.7
2008-12-18 09:26:41 51°14.653 2°50.992 261.6 12.9 260 9.7
2008-12-18 09:26:47 51°14.649 2°50.958 261.7 12.9 260 9.8
2008-12-18 09:26:52 51°14.646 2°50.93 261.6 12.9 260 9.8
2008-12-18 09:26:57 51°14.643 2°50.902 261.6 12.9 260 9.9
2008-12-18 09:27:01 51°14.641 2°50.879 261.4 12.9 260 9.8
2008-12-18 09:27:07 51°14.637 2°50.846 261.7 12.9 260 10
2008-12-18 09:27:12 51°14.634 2°50.817 261.7 12.9 260 10
2008-12-18 09:27:17 51°14.631 2°50.789 261.6 13 260 10
2008-12-18 09:27:21 51°14.628 2°50.767 261.6 12.9 260 10
2008-12-18 09:27:26 51°14.625 2°50.739 261.6 12.9 260 10.2
2008-12-18 09:27:31 51°14.622 2°50.71 262 13 261 10.1
2008-12-18 09:27:37 51°14.619 2°50.676 262 13 260 10.1
2008-12-18 09:27:41 51°14.616 2°50.654 261.7 12.9 260 10.2
2008-12-18 09:27:46 51°14.613 2°50.626 261.4 13 260 10.3
2008-12-18 09:27:52 51°14.609 2°50.592 261.1 13 260 10.2
2008-12-18 09:27:57 51°14.606 2°50.564 261.3 13 260 10.2
2008-12-18 09:28:01 51°14.603 2°50.541 261.6 13 260 10.3
2008-12-18 09:28:06 51°14.6 2°50.513 261.6 13 260 10.3
2008-12-18 09:28:11 51°14.597 2°50.484 261.6 13 260 10.3
2008-12-18 09:28:17 51°14.593 2°50.451 261.6 13 260 10.4
2008-12-18 09:28:22 51°14.59 2°50.422 261.5 13 260 10.3
2008-12-18 09:28:26 51°14.587 2°50.4 261.4 13 260 10.4
2008-12-18 09:28:32 51°14.584 2°50.366 261.6 13 260 10.4
2008-12-18 09:28:37 51°14.58 2°50.338 261.6 13 260 10.5
2008-12-18 09:28:41 51°14.578 2°50.315 261.4 13 260 10.4
2008-12-18 09:28:47 51°14.574 2°50.281 261.4 13 259 10.4
2008-12-18 09:28:52 51°14.571 2°50.253 261.3 13 260 10.5
2008-12-18 09:28:57 51°14.568 2°50.225 261.5 13 260 10.5
2008-12-18 09:29:01 51°14.565 2°50.202 261.5 13 260 10.4
2008-12-18 09:29:07 51°14.561 2°50.168 261.6 13 260 10.5
2008-12-18 09:29:12 51°14.558 2°50.14 261.6 13 260 10.6
2008-12-18 09:29:17 51°14.555 2°50.112 261.7 13 260 10.6
2008-12-18 09:29:21 51°14.553 2°50.089 261.6 13 260 10.5
2008-12-18 09:29:26 51°14.55 2°50.061 261.5 13 260 10.6
2008-12-18 09:29:32 51°14.546 2°50.027 261.3 13 260 10.5
2008-12-18 09:29:37 51°14.542 2°49.999 261.4 13 260 10.6
2008-12-18 09:29:41 51°14.54 2°49.976 261.3 13 259 10.7
2008-12-18 09:29:46 51°14.536 2°49.948 261.1 13 259 10.6
2008-12-18 09:29:52 51°14.533 2°49.914 260.9 13 260 10.7
2008-12-18 09:29:57 51°14.529 2°49.886 261.4 13 259 10.8
2008-12-18 09:30:01 51°14.526 2°49.863 261.2 13 258 10.8
2008-12-18 09:30:06 51°14.522 2°49.836 260.7 13 259 10.8
2008-12-18 09:30:11 51°14.518 2°49.808 260.6 13 259 10.8
2008-12-18 09:30:17 51°14.515 2°49.774 260.6 13 260 10.8
2008-12-18 09:30:22 51°14.511 2°49.746 261.3 13 259 10.8
2008-12-18 09:30:26 51°14.508 2°49.723 261.1 13 260 10.7
2008-12-18 09:30:32 51°14.505 2°49.689 261.4 13 259 10.8
2008-12-18 09:30:37 51°14.501 2°49.661 261.1 13 258 10.8
2008-12-18 09:30:42 51°14.497 2°49.633 260 13 259 10.9
2008-12-18 09:30:47 51°14.494 2°49.605 260.1 13 259 10.8
2008-12-18 09:30:52 51°14.49 2°49.576 260.4 13 259 10.8
2008-12-18 09:30:57 51°14.487 2°49.548 260.8 13 258 10.8
2008-12-18 09:31:01 51°14.484 2°49.526 260.4 13 258 10.8
2008-12-18 09:31:07 51°14.48 2°49.492 259.8 13 257 10.8
2008-12-18 09:31:12 51°14.476 2°49.464 259.2 13 258 10.8
2008-12-18 09:31:17 51°14.472 2°49.436 259.1 13 257 10.9
2008-12-18 09:31:21 51°14.469 2°49.413 259.2 13 259 10.8
2008-12-18 09:31:26 51°14.466 2°49.385 259.4 13 259 10.8
2008-12-18 09:31:32 51°14.462 2°49.351 260.4 13 260 10.9
2008-12-18 09:31:37 51°14.459 2°49.323 261 13 260 10.8
2008-12-18 09:31:41 51°14.456 2°49.3 261.8 13 260 10.8
2008-12-18 09:31:46 51°14.453 2°49.272 262 13 261 10.9
2008-12-18 09:31:52 51°14.449 2°49.238 262.2 13 261 10.9
2008-12-18 09:31:57 51°14.446 2°49.21 262.3 13 261 10.8
2008-12-18 09:32:01 51°14.444 2°49.187 262.4 13 261 10.8
2008-12-18 09:32:06 51°14.441 2°49.159 262.4 13 260 10.7
2008-12-18 09:32:11 51°14.438 2°49.131 262.2 13 261 10.8
2008-12-18 09:32:17 51°14.435 2°49.097 262 13 260 10.8
2008-12-18 09:32:21 51°14.432 2°49.074 262 13 261 10.8
2008-12-18 09:32:26 51°14.43 2°49.045 262.5 13 260 10.8
2008-12-18 09:32:31 51°14.427 2°49.017 262.3 13 261 10.7
2008-12-18 09:32:37 51°14.423 2°48.983 261.8 13 261 10.8
2008-12-18 09:32:42 51°14.42 2°48.955 262.3 13 260 10.9
2008-12-18 09:32:46 51°14.418 2°48.932 261.7 13.1 260 10.8
2008-12-18 09:32:52 51°14.414 2°48.898 261.8 13.1 261 10.8
2008-12-18 09:32:57 51°14.411 2°48.87 261.8 13 261 10.8
2008-12-18 09:33:02 51°14.408 2°48.841 261.7 13 260 10.8
2008-12-18 09:33:07 51°14.405 2°48.813 261.8 13 260 10.7
2008-12-18 09:33:12 51°14.402 2°48.785 261.8 13 260 10.8
2008-12-18 09:33:17 51°14.399 2°48.756 261.6 13 260 10.7
2008-12-18 09:33:22 51°14.396 2°48.728 261.5 13 261 10.7
2008-12-18 09:33:26 51°14.393 2°48.705 261.6 13 260 10.8
2008-12-18 09:33:32 51°14.39 2°48.672 261.9 13 261 10.8
2008-12-18 09:33:37 51°14.387 2°48.644 262.1 13 260 10.7
2008-12-18 09:33:41 51°14.384 2°48.621 261.8 12.9 260 10.8
2008-12-18 09:33:46 51°14.381 2°48.593 261.6 12.9 260 10.8
2008-12-18 09:33:52 51°14.377 2°48.559 261.5 12.9 260 10.8
2008-12-18 09:33:57 51°14.374 2°48.531 261.6 12.9 260 10.8
2008-12-18 09:34:01 51°14.372 2°48.508 261.6 12.9 261 10.8
2008-12-18 09:34:06 51°14.369 2°48.48 261.8 12.9 260 10.7
2008-12-18 09:34:12 51°14.365 2°48.446 261.8 13 261 10.8
2008-12-18 09:34:17 51°14.362 2°48.418 261.9 12.9 260 10.7
2008-12-18 09:34:21 51°14.36 2°48.396 261.4 12.9 261 10.7
2008-12-18 09:34:26 51°14.356 2°48.368 261.4 13 259 10.7
2008-12-18 09:34:31 51°14.353 2°48.339 261.2 12.9 260 10.6
2008-12-18 09:34:37 51°14.349 2°48.306 261.2 12.9 260 10.6
2008-12-18 09:34:42 51°14.347 2°48.277 261.2 13 261 10.7
2008-12-18 09:34:46 51°14.344 2°48.255 261.8 12.9 260 10.6
2008-12-18 09:34:52 51°14.34 2°48.221 261.9 13 260 10.6
2008-12-18 09:34:57 51°14.338 2°48.192 261.6 13 261 10.6
2008-12-18 09:35:02 51°14.334 2°48.164 261.7 12.9 260 10.6
2008-12-18 09:35:07 51°14.331 2°48.136 261.6 13 260 10.6
2008-12-18 09:35:12 51°14.328 2°48.108 261.4 13 260 10.5
2008-12-18 09:35:17 51°14.325 2°48.079 261.6 13 260 10.6
2008-12-18 09:35:22 51°14.322 2°48.051 261.5 13 261 10.6
2008-12-18 09:35:26 51°14.32 2°48.028 261.6 13 260 10.5
2008-12-18 09:35:32 51°14.316 2°47.994 261.6 13 260 10.4
2008-12-18 09:35:37 51°14.313 2°47.966 261 13 260 10.5
2008-12-18 09:35:42 51°14.309 2°47.938 260.8 13 259 10.5
2008-12-18 09:35:46 51°14.307 2°47.915 260.8 13 260 10.4
2008-12-18 09:35:52 51°14.303 2°47.881 261.1 13 260 10.5
2008-12-18 09:35:57 51°14.3 2°47.853 261.5 13 260 10.3
2008-12-18 09:36:01 51°14.298 2°47.83 261.5 13 261 10.2
2008-12-18 09:36:06 51°14.295 2°47.802 261.6 13 260 10.1
2008-12-18 09:36:12 51°14.291 2°47.768 261.6 13 260 10.2
2008-12-18 09:36:17 51°14.288 2°47.74 261.5 13 260 10.1
2008-12-18 09:36:21 51°14.285 2°47.717 261.6 13 260 10.1
2008-12-18 09:36:26 51°14.283 2°47.689 261.3 13 261 10.1
2008-12-18 09:36:32 51°14.279 2°47.655 261.6 12.9 260 10
2008-12-18 09:36:37 51°14.276 2°47.627 261.6 13 260 9.9
2008-12-18 09:36:41 51°14.273 2°47.604 261.5 12.9 260 9.7
2008-12-18 09:36:46 51°14.27 2°47.576 261.5 12.9 260 9.6
2008-12-18 09:36:51 51°14.267 2°47.548 261.6 12.9 260 9.5
2008-12-18 09:36:57 51°14.264 2°47.515 261.6 12.9 261 9.6
2008-12-18 09:37:02 51°14.261 2°47.487 261.7 12.8 260 9.4
2008-12-18 09:37:06 51°14.258 2°47.464 261.4 12.9 260 9.3
2008-12-18 09:37:12 51°14.255 2°47.431 261.4 12.9 260 9.2
2008-12-18 09:37:17 51°14.252 2°47.403 261.6 12.8 261 9.3
2008-12-18 09:37:22 51°14.249 2°47.375 261.7 12.8 260 9.2
2008-12-18 09:37:26 51°14.246 2°47.352 261.9 12.9 260 8.9
2008-12-18 09:37:32 51°14.243 2°47.319 261.3 12.8 260 8.8
2008-12-18 09:37:37 51°14.24 2°47.291 261.3 12.8 261 8.8
2008-12-18 09:37:42 51°14.237 2°47.263 261.6 12.8 260 8.8
2008-12-18 09:37:46 51°14.235 2°47.241 261.5 12.8 261 8.6
2008-12-18 09:37:52 51°14.231 2°47.208 261.4 12.8 261 8.6
2008-12-18 09:37:57 51°14.228 2°47.18 261.6 12.7 261 8.4
2008-12-18 09:38:01 51°14.226 2°47.157 261.8 12.7 261 8.4
2008-12-18 09:38:07 51°14.222 2°47.124 261.3 12.7 261 8.1
2008-12-18 09:38:12 51°14.219 2°47.097 261.3 12.7 260 8.3
2008-12-18 09:38:17 51°14.216 2°47.069 261 12.7 260 8
2008-12-18 09:38:21 51°14.214 2°47.047 260.6 12.7 259 8.2
2008-12-18 09:38:27 51°14.21 2°47.014 260.1 12.7 259 8
2008-12-18 09:38:32 51°14.206 2°46.986 260 12.6 259 7.9
2008-12-18 09:38:37 51°14.203 2°46.959 260 12.6 259 7.8
2008-12-18 09:38:41 51°14.201 2°46.937 259.5 12.6 260 7.9
2008-12-18 09:38:46 51°14.197 2°46.91 260 12.6 258 7.8
2008-12-18 09:38:52 51°14.193 2°46.877 259.4 12.7 258 8
2008-12-18 09:38:57 51°14.189 2°46.85 258.7 12.6 259 7.9
2008-12-18 09:39:02 51°14.185 2°46.822 258.7 12.7 258 7.9
2008-12-18 09:39:06 51°14.183 2°46.8 258.3 12.7 258 7.9
2008-12-18 09:39:12 51°14.178 2°46.767 258 12.7 258 8.1
2008-12-18 09:39:17 51°14.174 2°46.74 258 12.7 258 8.1
2008-12-18 09:39:22 51°14.171 2°46.713 258.1 12.7 257 8.1
2008-12-18 09:39:26 51°14.168 2°46.691 257.9 12.7 258 8.1
2008-12-18 09:39:32 51°14.163 2°46.658 257.8 12.7 258 8.1
2008-12-18 09:39:37 51°14.16 2°46.631 258.3 12.6 259 8.1
2008-12-18 09:39:42 51°14.156 2°46.603 258.7 12.7 259 8.2
2008-12-18 09:39:46 51°14.153 2°46.581 258.8 12.7 259 8.3
2008-12-18 09:39:52 51°14.149 2°46.548 259.1 12.7 259 8.2
2008-12-18 09:39:57 51°14.146 2°46.521 259.4 12.7 259 8.4
2008-12-18 09:40:02 51°14.142 2°46.493 259.4 12.7 258 8.6
2008-12-18 09:40:06 51°14.14 2°46.471 259.4 12.7 260 8.6
2008-12-18 09:40:12 51°14.136 2°46.437 260 12.8 258 8.8
2008-12-18 09:40:17 51°14.133 2°46.41 259.8 12.8 260 8.8
2008-12-18 09:40:21 51°14.13 2°46.388 260 12.7 259 8.5
2008-12-18 09:40:27 51°14.125 2°46.355 260.1 12.8 256 8.6
2008-12-18 09:40:32 51°14.121 2°46.328 257.4 12.7 255 9
2008-12-18 09:40:37 51°14.116 2°46.3 255.9 12.8 254 9
2008-12-18 09:40:41 51°14.112 2°46.279 255.2 12.8 254 9
2008-12-18 09:40:46 51°14.106 2°46.252 254.5 12.7 251 9
2008-12-18 09:40:52 51°14.1 2°46.22 252.3 12.8 252 8.9
2008-12-18 09:40:57 51°14.093 2°46.194 251.3 12.7 249 9.2
2008-12-18 09:41:01 51°14.088 2°46.173 250.4 12.7 248 9.4
2008-12-18 09:41:06 51°14.081 2°46.147 247.9 12.7 244 9.2
2008-12-18 09:41:12 51°14.072 2°46.117 245.5 12.7 245 9.2
2008-12-18 09:41:17 51°14.063 2°46.092 244.6 12.7 241 9.4
2008-12-18 09:41:22 51°14.055 2°46.068 242 12.6 240 9.3
2008-12-18 09:41:26 51°14.047 2°46.049 239.5 12.5 238 9.4
2008-12-18 09:41:32 51°14.036 2°46.021 238 12.6 237 9.4
2008-12-18 09:41:37 51°14.026 2°45.998 236.2 12.6 236 9.2
2008-12-18 09:41:41 51°14.018 2°45.98 235.2 12.5 234 9
2008-12-18 09:41:46 51°14.007 2°45.958 233.5 12.5 232 9.1
2008-12-18 09:41:52 51°13.995 2°45.931 232.4 12.6 234 9.2
2008-12-18 09:41:57 51°13.983 2°45.911 232.1 12.5 227 9.1
2008-12-18 09:42:02 51°13.972 2°45.89 227.9 12.5 229 9.1
2008-12-18 09:42:06 51°13.962 2°45.875 226.7 12.4 224 8.9
2008-12-18 09:42:12 51°13.947 2°45.851 224.9 12.5 226 9
2008-12-18 09:42:17 51°13.935 2°45.832 223.8 12.5 224 8.7
2008-12-18 09:42:22 51°13.922 2°45.813 222.7 12.4 223 8.7
2008-12-18 09:42:27 51°13.909 2°45.795 221.6 12.4 221 8.5
2008-12-18 09:42:32 51°13.896 2°45.776 220.5 12.4 222 8.6
2008-12-18 09:42:37 51°13.883 2°45.759 220.1 12.5 220 8.4
2008-12-18 09:42:41 51°13.873 2°45.744 218.8 12.5 221 8.3
2008-12-18 09:42:46 51°13.859 2°45.727 218.8 12.4 219 8.2
2008-12-18 09:42:52 51°13.843 2°45.707 217.9 12.3 218 8.3
2008-12-18 09:42:57 51°13.83 2°45.689 216.3 12.4 219 8.1
2008-12-18 09:43:01 51°13.819 2°45.675 216.3 12.4 219 7.9
2008-12-18 09:43:06 51°13.806 2°45.658 216.9 12.3 219 7.8
2008-12-18 09:43:12 51°13.79 2°45.638 217 12.3 218 7.7
2008-12-18 09:43:17 51°13.776 2°45.622 216.2 12.3 217 7.7
2008-12-18 09:43:22 51°13.763 2°45.605 215.1 12.3 218 7.6
2008-12-18 09:43:26 51°13.752 2°45.592 215.1 12.2 217 7.4
2008-12-18 09:43:32 51°13.736 2°45.572 215.1 12.3 217 7.4
2008-12-18 09:43:37 51°13.722 2°45.556 214.9 12.3 217 7.5
2008-12-18 09:43:42 51°13.709 2°45.54 215 12.1 217 7.3
2008-12-18 09:43:46 51°13.698 2°45.527 214.5 12.2 218 7.3
2008-12-18 09:43:51 51°13.684 2°45.51 215 12.3 218 7.2
2008-12-18 09:43:57 51°13.668 2°45.49 216 12.2 217 7.2
2008-12-18 09:44:02 51°13.655 2°45.473 216.2 12.2 218 5.3
2008-12-18 09:44:06 51°13.644 2°45.46 215.7 12.2 218 7.1
2008-12-18 09:44:12 51°13.628 2°45.44 216 12.1 217 5.4
2008-12-18 09:44:17 51°13.615 2°45.423 215.8 12.2 219 7
2008-12-18 09:44:22 51°13.602 2°45.407 216 12.2 219 5.3
2008-12-18 09:44:27 51°13.589 2°45.389 216.7 12.2 219 7.1
2008-12-18 09:44:32 51°13.575 2°45.372 216.9 12.3 218 5.3
2008-12-18 09:44:37 51°13.562 2°45.355 217 12.4 219 7.1
2008-12-18 09:44:41 51°13.551 2°45.342 216.8 12.3 219 7.2
2008-12-18 09:44:47 51°13.536 2°45.321 217 12.4 220 7.4
2008-12-18 09:44:52 51°13.522 2°45.303 217.1 12.5 219 7.3
2008-12-18 09:44:57 51°13.509 2°45.286 217.3 12.5 220 7.3
2008-12-18 09:45:01 51°13.498 2°45.272 217.4 12.4 219 -999
2008-12-18 09:45:07 51°13.482 2°45.251 217 12.5 220 7.9
2008-12-18 09:45:12 51°13.468 2°45.234 217.3 12.6 219 7.9
2008-12-18 09:45:17 51°13.455 2°45.215 217.4 12.7 220 8.2
2008-12-18 09:45:21 51°13.444 2°45.201 217.9 12.8 221 8.2
2008-12-18 09:45:26 51°13.431 2°45.181 219 12.8 222 8.6
2008-12-18 09:45:32 51°13.415 2°45.159 220.2 12.7 222 8.6
2008-12-18 09:45:37 51°13.402 2°45.14 220.5 12.8 222 9
2008-12-18 09:45:41 51°13.392 2°45.124 220.3 12.9 223 8.7
2008-12-18 09:45:46 51°13.379 2°45.105 221 12.9 223 9.3
2008-12-18 09:45:52 51°13.363 2°45.082 221.6 12.8 223 9.2
2008-12-18 09:45:57 51°13.35 2°45.062 221.2 12.9 224 9.6
2008-12-18 09:46:01 51°13.34 2°45.047 221.4 12.9 224 9.5
2008-12-18 09:46:06 51°13.327 2°45.027 222.2 12.8 224 9.7
2008-12-18 09:46:11 51°13.314 2°45.008 222.5 12.7 223 9.9
2008-12-18 09:46:17 51°13.299 2°44.985 221.8 12.8 223 10
2008-12-18 09:46:22 51°13.286 2°44.965 221.6 12.8 224 10.1
2008-12-18 09:46:26 51°13.275 2°44.949 222.2 12.8 222 10.2
2008-12-18 09:46:32 51°13.26 2°44.926 221.7 12.8 223 10.4
2008-12-18 09:46:37 51°13.247 2°44.907 221.5 12.9 223 10.4
2008-12-18 09:46:42 51°13.234 2°44.887 221.8 12.8 224 10.5
2008-12-18 09:46:47 51°13.221 2°44.868 222.2 12.7 222 10.6
2008-12-18 09:46:52 51°13.208 2°44.849 221.5 12.9 223 10.7
2008-12-18 09:46:57 51°13.195 2°44.83 221.2 12.9 224 10.6
2008-12-18 09:47:01 51°13.185 2°44.814 221.8 12.7 223 10.6
2008-12-18 09:47:06 51°13.171 2°44.796 221.2 12.7 222 10.7
2008-12-18 09:47:12 51°13.156 2°44.772 220.6 12.9 223 10.7
2008-12-18 09:47:17 51°13.143 2°44.754 221.2 12.8 222 10.8
2008-12-18 09:47:21 51°13.132 2°44.739 220.9 12.7 221 10.9
2008-12-18 09:47:27 51°13.116 2°44.716 219.8 12.8 222 10.9
2008-12-18 09:47:32 51°13.103 2°44.697 220 12.8 223 11
2008-12-18 09:47:37 51°13.09 2°44.678 220.9 12.7 222 10.9
2008-12-18 09:47:41 51°13.08 2°44.663 220.9 12.8 222 11
2008-12-18 09:47:46 51°13.066 2°44.644 220.4 13 223 11
2008-12-18 09:47:52 51°13.051 2°44.62 220.9 12.8 224 10.9
2008-12-18 09:47:57 51°13.037 2°44.602 221.8 12.7 222 10.9
2008-12-18 09:48:01 51°13.027 2°44.586 220.7 12.8 224 11
2008-12-18 09:48:06 51°13.014 2°44.567 220.8 12.9 222 11
2008-12-18 09:48:12 51°12.999 2°44.543 221.3 12.8 224 11
2008-12-18 09:48:17 51°12.985 2°44.525 221.6 12.8 221 11.1
2008-12-18 09:48:22 51°12.972 2°44.505 220.7 12.9 224 11
2008-12-18 09:48:26 51°12.961 2°44.49 221 12.8 222 11.1
2008-12-18 09:48:32 51°12.946 2°44.467 221 12.8 223 11.1
2008-12-18 09:48:37 51°12.933 2°44.448 220.9 12.9 222 11.1
2008-12-18 09:48:42 51°12.919 2°44.429 220.9 12.9 223 11.1
2008-12-18 09:48:47 51°12.906 2°44.41 220.9 12.8 222 11.1
2008-12-18 09:48:52 51°12.893 2°44.391 220.9 12.8 222 11.1
2008-12-18 09:48:57 51°12.88 2°44.371 220.4 12.9 223 11.1
2008-12-18 09:49:01 51°12.869 2°44.356 220.6 12.9 222 11.3
2008-12-18 09:49:06 51°12.856 2°44.337 220.9 12.9 223 11.2
2008-12-18 09:49:12 51°12.84 2°44.314 220.9 12.9 222 11.3
2008-12-18 09:49:17 51°12.827 2°44.294 220.8 12.9 223 11.3
2008-12-18 09:49:22 51°12.814 2°44.275 221 12.9 223 11.3
2008-12-18 09:49:27 51°12.801 2°44.256 221.1 12.8 222 11.3
2008-12-18 09:49:32 51°12.787 2°44.237 220.9 12.9 222 11.3
2008-12-18 09:49:37 51°12.774 2°44.217 220.4 12.9 223 11.3
2008-12-18 09:49:41 51°12.763 2°44.202 220.9 12.8 222 11.3
2008-12-18 09:49:47 51°12.748 2°44.179 220.9 12.9 223 11.3
2008-12-18 09:49:52 51°12.734 2°44.16 220.9 12.9 221 11.3
2008-12-18 09:49:57 51°12.721 2°44.14 220 12.9 223 11.3
2008-12-18 09:50:01 51°12.71 2°44.125 220.5 12.9 222 11.4
2008-12-18 09:50:06 51°12.697 2°44.106 220.7 12.8 223 11.4
2008-12-18 09:50:12 51°12.681 2°44.083 220.6 12.9 222 11.6
2008-12-18 09:50:17 51°12.668 2°44.064 220.9 12.9 223 11.5
2008-12-18 09:50:21 51°12.658 2°44.048 220.9 12.9 222 11.5
2008-12-18 09:50:26 51°12.644 2°44.029 221.1 12.9 222 11.5
2008-12-18 09:50:31 51°12.631 2°44.01 220.4 12.9 223 11.5
2008-12-18 09:50:37 51°12.615 2°43.987 220.7 12.8 222 11.5
2008-12-18 09:50:42 51°12.602 2°43.968 220.8 12.8 222 11.4
2008-12-18 09:50:46 51°12.591 2°43.953 220.6 13 222 11.5
2008-12-18 09:50:52 51°12.576 2°43.929 220.3 12.8 223 11.2
2008-12-18 09:50:57 51°12.562 2°43.911 220.9 12.7 221 11.2
2008-12-18 09:51:02 51°12.549 2°43.893 219.8 12.8 221 10.9
2008-12-18 09:51:06 51°12.538 2°43.878 218.7 12.8 221 11
2008-12-18 09:51:12 51°12.522 2°43.857 218.7 12.6 219 11
2008-12-18 09:51:17 51°12.508 2°43.839 218 12.7 220 11.1
2008-12-18 09:51:22 51°12.494 2°43.821 217.3 12.9 220 11.3
2008-12-18 09:51:26 51°12.483 2°43.806 218 12.8 220 10.8
2008-12-18 09:51:32 51°12.467 2°43.785 217.9 12.6 219 10.7